SLCBSLOR

Guest
Details From SLCB - JORGE WILSTERMAN
To SLOR - JUAN MENDOZA
Flight Number -
Tags generated
Created
Modified
Stats Distance 61 nm / 113 km
Max Altitude 18,000 ft / 5,486 m
Waypoints 4
Social Downloads 1
Likes 0
Share VATSIM

Download

Looking for another format? Having issues loading an existing format? Contact us
Advertisement - Login to hide

Notes

Basic altitude profile: - Ascent Rate: 2500ft/min - Ascent Speed: 250kts - Cruise Altitude: 35000ft - Cruise Speed: 420kts - Descent Rate: 1500ft/min - Descent Speed: 250kts Options: - Use NATs: yes - Use PACOTS: yes - Use low airways: yes - Use high airways: yes

Route

SLCB CBA W13 PAROT SLOR

ID Type Via Altitude Latitude Longitude Leg Dist Tot Dist Heading (true) Name
O SLCB APT - 0 ft / 0 m -17.42039˚ -66.17717˚ - 0 nm - JORGE WILSTERMAN
CBA VOR - 0 ft / 0 m -17.42126˚ -66.17904˚ 0 nm 0 nm 244° / 244° COCHABAMBA VOR-DME
PAROT FIX W13 (AWY-LO) 18,000 ft / 5,486 m -17.61074˚ -66.47044˚ 20 nm 20 nm 236° / 236° -
O SLOR APT - 0 ft / 0 m -17.96297˚ -67.07486˚ 40 nm 60 nm 238° / 239° JUAN MENDOZA

Altitude Profile

Advertisement - Login to hide

SLCB

Details ICAO SLCB (CBB)
Name JORGE WILSTERMAN
Region Bolivia
Timezone America/La_Paz (UTC-4.0)
Stats Elevation 8,360 ft / 2,548 m (AMSL)
Location -17.420390° -66.177166°
Runways 2
Magnetic Variation 9.479° W

METAR

SLCB 241900Z 13005KT 080V180 9999 FEW040 25/M01 Q1023

Decode

TAF

TAF SLCB 241700Z 2418/2518 30010KT 9999 NSC TX28/2419Z TN05/2511Z TEMPO 2423/2501 16010KT BECMG 2502/2504 00000KT

Decode

Departure Runways

ID Width Length Bearing (true) Bearing (mag) Surface Threshold Offset Overrun Length
04 148 ft / 45 m 8,716 ft / 2,657 m 37.26° 46.74° Asphalt 0 ft / 0 m 0 ft / 0 m
14 148 ft / 45 m 12,480 ft / 3,804 m 132.10° 141.58° Asphalt 328 ft / 100 m 199 ft / 61 m
22 148 ft / 45 m 8,716 ft / 2,657 m 217.25° 226.73° Asphalt 732 ft / 223 m 0 ft / 0 m
32 148 ft / 45 m 12,480 ft / 3,804 m 312.09° 321.57° Asphalt 984 ft / 300 m 201 ft / 61 m

SLOR

Details ICAO SLOR
Name JUAN MENDOZA
Region Bolivia
Timezone America/La_Paz (UTC-4.0)
Stats Elevation 12,146 ft / 3,702 m (AMSL)
Location -17.962969° -67.074859°
Runways 2
Magnetic Variation 8.547° W

METAR

SLOR 241900Z 28008KT 9999 FEW020 15/M02 Q1035

Decode

TAF

Not found

Destination Runways

ID Width Length Bearing (true) Bearing (mag) Surface Threshold Offset Overrun Length
09 120 ft / 37 m 6,115 ft / 1,864 m 93.25° 101.80° Dirt 0 ft / 0 m 0 ft / 0 m
18 75 ft / 23 m 8,115 ft / 2,473 m 182.32° 190.87° Asphalt 0 ft / 0 m 200 ft / 61 m
27 120 ft / 37 m 6,115 ft / 1,864 m 273.25° 281.80° Dirt 0 ft / 0 m 0 ft / 0 m
36 75 ft / 23 m 8,115 ft / 2,473 m 2.32° 10.87° Asphalt 0 ft / 0 m 170 ft / 52 m